Time;durP1;ratioP1;P1;durP2;ratioP2;P2;SDS_P1;SDS_P2;PMS_P1;PMS_P2;Temp;Humidity;BMP_temperature;BMP_pressure;BME280_temperature;BME280_humidity;BME280_pressure;Samples;Min_cycle;Max_cycle;Signal;HPM_P1;HPM_P2
2023/01/26 00:01:28;;;;;;;;;;;0.50;1.00;;;;;;5045139;28;19917;-79
2023/01/26 00:03:55;;;;;;;;;;;0.50;1.00;;;;;;5038258;28;20384;-79
2023/01/26 00:06:21;;;;;;;;;;;0.50;1.00;;;;;;5050462;28;19913;-79
2023/01/26 00:08:48;;;;;;;;;;;0.50;1.00;;;;;;5038434;28;19913;-80
2023/01/26 00:11:15;;;;;;;;;;;0.50;1.00;;;;;;5032957;28;19916;-78
2023/01/26 00:13:42;;;;;;;;;;;0.50;1.00;;;;;;5047708;28;19913;-79
2023/01/26 00:16:12;;;;;;;;;;;0.50;1.00;;;;;;5050776;28;19916;-79
2023/01/26 00:18:38;;;;;;;;;;;0.50;1.00;;;;;;5050710;28;19916;-78
2023/01/26 00:21:05;;;;;;;;;;;0.50;1.00;;;;;;5051511;28;19908;-79
2023/01/26 00:23:31;;;;;;;;;;;0.50;1.00;;;;;;5041220;28;19921;-79
2023/01/26 00:25:57;;;;;;;;;;;0.50;1.00;;;;;;5045342;28;19920;-79
2023/01/26 00:28:23;;;;;;;;;;;0.40;1.00;;;;;;5063650;28;20326;-78
2023/01/26 00:30:49;;;;;;;;;;;0.50;1.00;;;;;;5050089;28;19943;-79
2023/01/26 00:33:16;;;;;;;;;;;0.40;1.00;;;;;;5052280;28;19935;-79
2023/01/26 00:35:45;;;;;;;;;;;0.40;1.00;;;;;;5052325;28;19909;-80
2023/01/26 00:38:11;;;;;;;;;;;0.40;1.00;;;;;;5050281;28;19909;-80
2023/01/26 00:40:38;;;;;;;;;;;0.40;1.00;;;;;;5052334;28;19909;-79
2023/01/26 00:43:04;;;;;;;;;;;0.40;1.00;;;;;;5051787;28;19913;-79
2023/01/26 00:45:30;;;;;;;;;;;0.40;1.00;;;;;;5051529;28;19908;-79
2023/01/26 00:47:56;;;;;;;;;;;0.40;1.00;;;;;;5048950;28;19912;-79
2023/01/26 00:50:22;;;;;;;;;;;0.40;1.00;;;;;;5059167;28;19912;-79
2023/01/26 00:52:48;;;;;;;;;;;0.30;1.00;;;;;;5049709;28;19905;-80
2023/01/26 00:55:15;;;;;;;;;;;0.40;1.00;;;;;;5052012;28;19915;-81
2023/01/26 00:57:41;;;;;;;;;;;0.30;1.00;;;;;;5037185;28;19909;-80
2023/01/26 01:00:08;;;;;;;;;;;0.30;1.00;;;;;;5051949;28;20007;-80
2023/01/26 01:02:34;;;;;;;;;;;0.30;1.00;;;;;;5055015;28;20277;-80
2023/01/26 01:05:00;;;;;;;;;;;0.30;1.00;;;;;;5055405;28;20350;-80
2023/01/26 01:07:26;;;;;;;;;;;0.30;1.00;;;;;;5053734;28;19916;-80
2023/01/26 01:09:52;;;;;;;;;;;0.30;1.00;;;;;;5054680;28;20350;-80
2023/01/26 01:12:18;;;;;;;;;;;0.30;1.00;;;;;;5070426;28;19912;-80
2023/01/26 01:14:44;;;;;;;;;;;0.30;1.00;;;;;;5049246;28;19916;-80
2023/01/26 01:17:10;;;;;;;;;;;0.30;1.00;;;;;;5043733;28;19995;-80
2023/01/26 01:19:36;;;;;;;;;;;0.30;1.00;;;;;;5045272;28;19916;-80
2023/01/26 01:22:02;;;;;;;;;;;0.20;1.00;;;;;;5053272;28;19909;-80
2023/01/26 01:24:28;;;;;;;;;;;0.20;1.00;;;;;;5052539;28;19909;-80
2023/01/26 01:26:54;;;;;;;;;;;0.20;1.00;;;;;;5045195;28;20353;-80
2023/01/26 01:29:20;;;;;;;;;;;0.20;1.00;;;;;;5036468;28;19913;-80
2023/01/26 01:31:47;;;;;;;;;;;0.20;1.00;;;;;;5041339;28;19999;-79
2023/01/26 01:34:12;;;;;;;;;;;0.20;1.00;;;;;;5041624;28;19923;-78
2023/01/26 01:36:39;;;;;;;;;;;0.20;1.00;;;;;;5056527;28;19909;-79
2023/01/26 01:39:05;;;;;;;;;;;0.20;1.00;;;;;;5052999;28;19950;-80
2023/01/26 01:41:31;;;;;;;;;;;0.10;1.00;;;;;;5055309;28;19931;-80
2023/01/26 01:44:17;;;;;;;;;;;0.20;1.00;;;;;;5055496;28;19908;-79
2023/01/26 01:46:49;;;;;;;;;;;0.10;1.00;;;;;;5055760;28;19977;-79
2023/01/26 01:49:18;;;;;;;;;;;0.10;2.50;;;;;;5054839;28;19912;-76
2023/01/26 01:51:47;;;;;;;;;;;0.10;3.30;;;;;;5069811;28;19909;-78
2023/01/26 01:54:15;;;;;;;;;;;0.10;4.70;;;;;;5055495;28;19924;-78
2023/01/26 01:56:43;;;;;;;;;;;0.10;5.80;;;;;;5047781;28;19916;-87
2023/01/26 01:59:10;;;;;;;;;;;0.10;7.00;;;;;;5068248;28;20342;-78
2023/01/26 02:01:36;;;;;;;;;;;0.10;9.00;;;;;;5068591;28;20537;-81
2023/01/26 02:04:03;;;;;;;;;;;0.10;9.00;;;;;;5054794;28;19908;-80
2023/01/26 02:06:33;;;;;;;;;;;0.00;8.80;;;;;;5055959;28;19908;-79
2023/01/26 02:08:59;;;;;;;;;;;0.00;10.10;;;;;;5053607;28;19912;-80
2023/01/26 02:11:25;;;;;;;;;;;0.10;10.80;;;;;;5055246;28;19947;-80
2023/01/26 02:13:53;;;;;;;;;;;0.00;10.60;;;;;;5039060;28;20266;-79
2023/01/26 02:16:19;;;;;;;;;;;0.00;10.60;;;;;;5057615;28;19908;-83
2023/01/26 02:18:46;;;;;;;;;;;0.00;10.60;;;;;;5047405;28;19916;-81
2023/01/26 02:21:15;;;;;;;;;;;0.00;12.30;;;;;;5042991;28;19912;-80
2023/01/26 02:23:49;;;;;;;;;;;0.00;13.90;;;;;;5034439;28;19909;-80
2023/01/26 02:26:19;;;;;;;;;;;0.10;15.60;;;;;;5053079;28;19916;-79
2023/01/26 02:28:46;;;;;;;;;;;0.10;16.30;;;;;;5070808;28;19920;-79
2023/01/26 02:31:13;;;;;;;;;;;0.20;16.60;;;;;;5052047;28;19909;-80
2023/01/26 02:33:39;;;;;;;;;;;0.10;16.20;;;;;;5070370;28;19909;-80
2023/01/26 02:36:06;;;;;;;;;;;0.10;14.20;;;;;;5069152;28;19908;-80
2023/01/26 02:38:37;;;;;;;;;;;0.10;14.50;;;;;;5052094;28;19908;-79
2023/01/26 02:41:05;;;;;;;;;;;0.10;15.40;;;;;;5046994;28;19913;-82
2023/01/26 02:43:32;;;;;;;;;;;0.10;14.60;;;;;;5052786;28;20282;-81
2023/01/26 02:45:58;;;;;;;;;;;0.00;15.00;;;;;;5068240;28;19909;-81
2023/01/26 02:51:08;;;;;;;;;;;0.00;20.40;;;;;;5050725;28;19979;-80
2023/01/26 02:53:35;;;;;;;;;;;0.00;22.20;;;;;;5053631;28;19909;-80
2023/01/26 02:56:01;;;;;;;;;;;0.00;21.40;;;;;;5052068;28;19909;-80
2023/01/26 02:58:27;;;;;;;;;;;-0.10;23.10;;;;;;5046914;28;19916;-80
2023/01/26 03:00:53;;;;;;;;;;;0.00;25.20;;;;;;5066201;28;19921;-80
2023/01/26 03:03:22;;;;;;;;;;;0.00;27.30;;;;;;5051318;28;19909;-80
2023/01/26 03:05:49;;;;;;;;;;;0.00;28.20;;;;;;5068423;28;19909;-81
2023/01/26 03:08:15;;;;;;;;;;;0.00;30.00;;;;;;5045835;28;19908;-79
2023/01/26 03:10:43;;;;;;;;;;;0.00;30.60;;;;;;5051547;28;20302;-82
2023/01/26 03:13:09;;;;;;;;;;;0.00;29.80;;;;;;5054488;28;19912;-80
2023/01/26 03:15:51;;;;;;;;;;;-0.10;32.20;;;;;;5048753;28;20388;-79
2023/01/26 03:29:19;;;;;;;;;;;-0.20;46.70;;;;;;5053888;28;20050;-79
2023/01/26 03:31:45;;;;;;;;;;;-0.20;50.80;;;;;;5050409;28;19931;-79
2023/01/26 03:34:11;;;;;;;;;;;-0.20;52.60;;;;;;5037818;28;19913;-79
2023/01/26 03:36:38;;;;;;;;;;;-0.20;56.30;;;;;;5038212;28;19909;-79
2023/01/26 03:41:06;;;;;;;;;;;-0.20;55.90;;;;;;5044530;28;19916;-79
2023/01/26 03:58:28;;;;;;;;;;;-0.10;51.50;;;;;;5053430;28;19908;-79
2023/01/26 04:00:55;;;;;;;;;;;-0.10;51.30;;;;;;5065996;28;20259;-79
2023/01/26 04:08:51;;;;;;;;;;;-0.10;47.00;;;;;;5040105;28;19917;-79
2023/01/26 04:11:18;;;;;;;;;;;-0.20;46.70;;;;;;5051248;28;19915;-79
2023/01/26 04:22:02;;;;;;;;;;;-0.10;45.80;;;;;;5048768;28;20459;-79
2023/01/26 04:24:30;;;;;;;;;;;-0.10;39.70;;;;;;5050130;28;19936;-79
2023/01/26 04:26:58;;;;;;;;;;;-0.20;37.20;;;;;;5044545;28;19913;-79
2023/01/26 04:29:33;;;;;;;;;;;-0.20;36.20;;;;;;5052273;28;19936;-79
2023/01/26 04:31:59;;;;;;;;;;;-0.20;35.80;;;;;;5050026;28;19931;-79
2023/01/26 04:34:26;;;;;;;;;;;-0.10;35.40;;;;;;5050904;28;19905;-79
2023/01/26 04:36:52;;;;;;;;;;;-0.10;35.20;;;;;;5050111;28;19916;-79
2023/01/26 04:39:21;;;;;;;;;;;-0.20;34.30;;;;;;5037204;28;19916;-79
2023/01/26 04:41:51;;;;;;;;;;;-0.20;33.00;;;;;;5049509;28;19905;-79
2023/01/26 04:44:19;;;;;;;;;;;-0.20;32.70;;;;;;5050586;28;19908;-79
2023/01/26 04:46:47;;;;;;;;;;;-0.20;33.90;;;;;;5067555;28;19904;-79
2023/01/26 04:49:14;;;;;;;;;;;-0.10;37.60;;;;;;5061445;28;20129;-79
2023/01/26 04:51:40;;;;;;;;;;;-0.10;40.80;;;;;;5041744;28;19909;-78
2023/01/26 04:54:05;;;;;;;;;;;0.00;40.30;;;;;;5051617;28;19919;-78
2023/01/26 04:56:35;;;;;;;;;;;-0.10;37.30;;;;;;5050572;28;19931;-79
2023/01/26 04:59:03;;;;;;;;;;;0.00;37.60;;;;;;5051690;28;20246;-79
2023/01/26 05:01:30;;;;;;;;;;;0.00;36.70;;;;;;5038315;28;20285;-78
2023/01/26 05:04:00;;;;;;;;;;;-0.10;33.10;;;;;;5043044;28;19916;-79
2023/01/26 05:06:28;;;;;;;;;;;-0.10;30.90;;;;;;5060782;28;20269;-78
2023/01/26 05:08:55;;;;;;;;;;;-0.10;30.00;;;;;;5044668;28;20294;-78
2023/01/26 05:11:22;;;;;;;;;;;-0.10;30.60;;;;;;5043428;28;19913;-78
2023/01/26 05:14:23;;;;;;;;;;;-0.10;32.50;;;;;;4987036;28;19913;-78
2023/01/26 05:17:08;;;;;;;;;;;-0.10;35.40;;;;;;5043955;28;19908;-79
2023/01/26 05:19:53;;;;;;;;;;;-0.10;37.80;;;;;;5051526;28;19912;-79
2023/01/26 05:22:37;;;;;;;;;;;-0.10;39.30;;;;;;5049900;28;19908;-78
2023/01/26 05:25:36;;;;;;;;;;;-0.10;39.50;;;;;;5029633;28;19913;-78
2023/01/26 05:28:06;;;;;;;;;;;-0.10;37.50;;;;;;5061421;28;19913;-78
2023/01/26 05:30:32;;;;;;;;;;;-0.10;36.10;;;;;;5036348;28;19933;-78
2023/01/26 05:33:01;;;;;;;;;;;-0.10;36.70;;;;;;5050178;28;19909;-78
2023/01/26 05:35:27;;;;;;;;;;;-0.20;35.20;;;;;;5067003;28;20309;-78
2023/01/26 05:37:54;;;;;;;;;;;-0.20;36.50;;;;;;5050989;28;19920;-78
2023/01/26 05:40:20;;;;;;;;;;;-0.10;38.90;;;;;;5026444;28;19905;-78
2023/01/26 05:42:47;;;;;;;;;;;-0.10;40.50;;;;;;5028530;28;20282;-78
2023/01/26 05:45:21;;;;;;;;;;;-0.10;42.70;;;;;;5050570;28;19910;-78
2023/01/26 05:47:49;;;;;;;;;;;-0.10;45.30;;;;;;5068269;28;19972;-78
2023/01/26 05:50:15;;;;;;;;;;;-0.10;47.60;;;;;;5068694;28;19912;-78
2023/01/26 05:52:42;;;;;;;;;;;-0.10;46.10;;;;;;5047342;28;19915;-78
2023/01/26 05:55:09;;;;;;;;;;;-0.10;42.30;;;;;;5047028;28;19912;-79
2023/01/26 05:57:35;;;;;;;;;;;-0.10;42.10;;;;;;5053375;28;19909;-77
2023/01/26 06:00:05;;;;;;;;;;;-0.10;42.80;;;;;;5051077;28;19920;-79
2023/01/26 06:02:40;;;;;;;;;;;-0.10;43.70;;;;;;5061873;28;19909;-79
2023/01/26 06:05:07;;;;;;;;;;;-0.10;43.60;;;;;;5051196;28;19908;-80
2023/01/26 06:07:34;;;;;;;;;;;-0.10;42.40;;;;;;5040101;28;19921;-80
2023/01/26 06:10:13;;;;;;;;;;;-0.10;41.60;;;;;;5027930;28;19912;-80
2023/01/26 06:12:56;;;;;;;;;;;-0.10;39.60;;;;;;5047685;28;19909;-79
2023/01/26 06:15:46;;;;;;;;;;;-0.10;40.20;;;;;;5049171;28;19908;-76
2023/01/26 06:18:12;;;;;;;;;;;-0.10;41.20;;;;;;5051041;28;19909;-77
2023/01/26 06:20:43;;;;;;;;;;;-0.10;43.50;;;;;;5051898;28;19909;-76
2023/01/26 06:23:10;;;;;;;;;;;-0.10;47.40;;;;;;5054113;28;19908;-79
2023/01/26 06:25:40;;;;;;;;;;;-0.10;50.20;;;;;;5053070;28;19912;-78
2023/01/26 06:28:07;;;;;;;;;;;-0.10;52.80;;;;;;5039010;28;19912;-76
2023/01/26 06:30:36;;;;;;;;;;;-0.10;54.40;;;;;;5049727;28;19916;-78
2023/01/26 06:33:06;;;;;;;;;;;-0.10;56.50;;;;;;5052551;28;20289;-77
2023/01/26 06:35:35;;;;;;;;;;;-0.30;53.60;;;;;;5048253;28;19909;-76
2023/01/26 06:38:03;;;;;;;;;;;-0.20;55.10;;;;;;5049601;28;19927;-75
2023/01/26 06:40:29;;;;;;;;;;;-0.20;57.90;;;;;;5037155;28;19904;-78
2023/01/26 06:42:55;;;;;;;;;;;-0.20;59.20;;;;;;5055083;28;20376;-78
2023/01/26 06:45:21;;;;;;;;;;;-0.20;58.00;;;;;;5061975;28;19915;-78
2023/01/26 06:47:50;;;;;;;;;;;-0.30;59.70;;;;;;5052523;28;20350;-78
2023/01/26 06:50:18;;;;;;;;;;;-0.30;63.00;;;;;;5045382;28;20321;-78
2023/01/26 06:52:54;;;;;;;;;;;-0.20;68.90;;;;;;5043897;28;20365;-78
2023/01/26 06:55:41;;;;;;;;;;;-0.20;73.50;;;;;;5046235;28;19920;-78
2023/01/26 06:58:31;;;;;;;;;;;-0.20;77.00;;;;;;5054595;28;19909;-78
2023/01/26 07:00:57;;;;;;;;;;;-0.20;80.60;;;;;;5052224;28;19928;-79
2023/01/26 07:03:28;;;;;;;;;;;-0.30;84.10;;;;;;5054061;28;20361;-80
2023/01/26 07:05:54;;;;;;;;;;;-0.20;88.40;;;;;;5053906;28;20384;-80
2023/01/26 07:08:20;;;;;;;;;;;-0.30;86.40;;;;;;5052515;28;19942;-79
2023/01/26 07:10:46;;;;;;;;;;;-0.30;87.00;;;;;;5050885;28;19916;-78
2023/01/26 07:13:12;;;;;;;;;;;-0.30;85.90;;;;;;5051573;28;19909;-80
2023/01/26 07:15:38;;;;;;;;;;;-0.40;88.00;;;;;;5053486;28;19951;-79
2023/01/26 07:18:04;;;;;;;;;;;-0.40;91.10;;;;;;5052878;28;20025;-80
2023/01/26 07:20:29;;;;;;;;;;;-0.40;90.60;;;;;;5050775;28;20011;-79
2023/01/26 07:22:58;;;;;;;;;;;-0.40;86.80;;;;;;5053657;28;20340;-80
2023/01/26 07:25:24;;;;;;;;;;;-0.50;88.00;;;;;;5067315;28;19913;-78
2023/01/26 07:27:54;;;;;;;;;;;-0.50;90.80;;;;;;5052048;28;19913;-79
2023/01/26 07:30:20;;;;;;;;;;;-0.50;87.30;;;;;;5042791;28;19920;-79
2023/01/26 07:32:46;;;;;;;;;;;-0.50;89.70;;;;;;5055208;28;19928;-80
2023/01/26 07:35:12;;;;;;;;;;;-0.50;90.10;;;;;;5053316;28;20316;-80
2023/01/26 07:37:38;;;;;;;;;;;-0.50;91.10;;;;;;5061167;28;20274;-80
2023/01/26 07:40:04;;;;;;;;;;;-0.50;93.00;;;;;;5050273;28;19915;-79
2023/01/26 07:42:30;;;;;;;;;;;-0.40;95.60;;;;;;5052612;28;19909;-79
2023/01/26 07:45:17;;;;;;;;;;;-0.40;97.80;;;;;;5040126;28;20026;-79
2023/01/26 07:47:43;;;;;;;;;;;-0.50;96.80;;;;;;5044632;28;19916;-78
2023/01/26 07:50:10;;;;;;;;;;;-0.50;98.30;;;;;;5035625;28;19983;-80
2023/01/26 07:52:37;;;;;;;;;;;-0.50;98.00;;;;;;5034110;28;19909;-79
2023/01/26 07:55:03;;;;;;;;;;;-0.40;99.00;;;;;;5045334;28;19920;-79
2023/01/26 07:57:29;;;;;;;;;;;-0.50;99.90;;;;;;5051576;28;20285;-79
2023/01/26 07:59:55;;;;;;;;;;;-0.50;99.90;;;;;;5048933;28;19924;-79
2023/01/26 08:02:21;;;;;;;;;;;-0.40;99.90;;;;;;5061410;28;19912;-79
2023/01/26 08:04:48;;;;;;;;;;;-0.50;99.90;;;;;;5053255;28;19909;-78
2023/01/26 08:07:14;;;;;;;;;;;-0.50;99.90;;;;;;5053639;28;19932;-79
2023/01/26 08:09:40;;;;;;;;;;;-0.50;99.90;;;;;;5053388;28;19921;-79
2023/01/26 08:12:06;;;;;;;;;;;-0.40;99.90;;;;;;5048931;28;19909;-79
2023/01/26 08:14:32;;;;;;;;;;;-0.40;99.90;;;;;;5040392;28;19915;-78
2023/01/26 08:16:58;;;;;;;;;;;-0.40;99.90;;;;;;5056919;28;19904;-79
2023/01/26 08:19:24;;;;;;;;;;;-0.40;99.90;;;;;;5053555;28;20007;-78
2023/01/26 08:21:51;;;;;;;;;;;-0.40;99.90;;;;;;5051373;28;20413;-77
2023/01/26 08:24:18;;;;;;;;;;;-0.40;99.20;;;;;;5050765;28;19913;-78
2023/01/26 08:26:43;;;;;;;;;;;-0.40;99.10;;;;;;5052451;28;19916;-78
2023/01/26 08:29:09;;;;;;;;;;;-0.50;94.30;;;;;;5032989;28;20277;-78
2023/01/26 08:31:36;;;;;;;;;;;-0.50;91.00;;;;;;5053644;28;19991;-78
2023/01/26 08:34:03;;;;;;;;;;;-0.40;83.00;;;;;;5051486;28;19908;-78
2023/01/26 08:36:29;;;;;;;;;;;-0.40;73.80;;;;;;5050787;28;19905;-78
2023/01/26 08:38:55;;;;;;;;;;;-0.40;63.50;;;;;;5050292;28;20381;-79
2023/01/26 08:41:21;;;;;;;;;;;-0.50;51.50;;;;;;5033283;28;20236;-78
2023/01/26 08:43:47;;;;;;;;;;;-0.40;49.40;;;;;;5032863;28;19909;-79
2023/01/26 08:46:13;;;;;;;;;;;-0.40;48.90;;;;;;5033319;28;20350;-78
2023/01/26 08:48:39;;;;;;;;;;;-0.30;45.10;;;;;;5033626;28;19913;-79
2023/01/26 08:51:06;;;;;;;;;;;-0.30;42.30;;;;;;5033002;28;20337;-79
2023/01/26 08:53:33;;;;;;;;;;;-0.30;34.90;;;;;;5051308;28;19912;-79
2023/01/26 08:56:04;;;;;;;;;;;-0.30;29.50;;;;;;5051060;28;19916;-79
2023/01/26 08:58:32;;;;;;;;;;;-0.30;24.30;;;;;;5050411;28;19908;-79
2023/01/26 09:00:58;;;;;;;;;;;-0.40;12.30;;;;;;5049618;28;19916;-80
2023/01/26 09:03:24;;;;;;;;;;;-0.40;11.50;;;;;;5050882;28;19912;-78
2023/01/26 09:05:50;;;;;;;;;;;-0.30;12.50;;;;;;5052309;28;19904;-75
2023/01/26 09:08:16;;;;;;;;;;;-0.20;13.30;;;;;;5051019;28;20007;-75
2023/01/26 09:10:44;;;;;;;;;;;-0.20;11.50;;;;;;5049444;28;19909;-74
2023/01/26 09:13:10;;;;;;;;;;;-0.30;2.90;;;;;;5051301;28;19912;-75
2023/01/26 09:15:36;;;;;;;;;;;-0.30;4.40;;;;;;5051964;28;19915;-74
2023/01/26 09:18:02;;;;;;;;;;;-0.20;5.70;;;;;;5052112;28;19908;-78
2023/01/26 09:20:28;;;;;;;;;;;-0.20;4.60;;;;;;5050310;28;19904;-74
2023/01/26 09:22:54;;;;;;;;;;;-0.20;1.00;;;;;;5054575;28;19909;-74
2023/01/26 09:25:20;;;;;;;;;;;-0.20;1.00;;;;;;5046543;28;19913;-74
2023/01/26 09:27:46;;;;;;;;;;;-0.10;1.80;;;;;;5047955;28;19912;-74
2023/01/26 09:30:12;;;;;;;;;;;-0.10;1.00;;;;;;5052491;28;19912;-73
2023/01/26 09:32:38;;;;;;;;;;;-0.20;1.00;;;;;;5055285;28;19904;-74
2023/01/26 09:35:05;;;;;;;;;;;-0.10;1.00;;;;;;5054122;28;19909;-74
2023/01/26 09:37:31;;;;;;;;;;;-0.20;1.00;;;;;;5054856;28;20341;-75
2023/01/26 09:39:56;;;;;;;;;;;-0.10;1.00;;;;;;5054168;28;19905;-75
2023/01/26 09:42:28;;;;;;;;;;;0.00;1.00;;;;;;5054955;28;19919;-74
2023/01/26 09:44:57;;;;;;;;;;;0.00;1.00;;;;;;5055176;28;19908;-75
2023/01/26 09:47:28;;;;;;;;;;;0.00;1.00;;;;;;5054286;28;20064;-76
2023/01/26 09:50:01;;;;;;;;;;;0.00;1.00;;;;;;5053485;28;20250;-76
2023/01/26 09:52:29;;;;;;;;;;;0.00;1.00;;;;;;5054766;28;19966;-76
2023/01/26 09:54:59;;;;;;;;;;;0.00;1.00;;;;;;5054522;28;19916;-76
2023/01/26 09:57:35;;;;;;;;;;;0.00;1.00;;;;;;5046208;28;19909;-76
2023/01/26 10:00:04;;;;;;;;;;;0.10;1.00;;;;;;5046417;28;19928;-77
2023/01/26 10:02:40;;;;;;;;;;;0.20;1.00;;;;;;5057522;28;19908;-76
2023/01/26 10:05:13;;;;;;;;;;;0.20;1.00;;;;;;5053721;28;19909;-77
2023/01/26 10:07:42;;;;;;;;;;;0.20;1.00;;;;;;5052178;28;20316;-75
2023/01/26 10:10:13;;;;;;;;;;;0.20;1.00;;;;;;5050995;28;20133;-76
2023/01/26 10:12:39;;;;;;;;;;;0.10;1.00;;;;;;5062891;28;19909;-75
2023/01/26 10:15:07;;;;;;;;;;;0.20;1.00;;;;;;5048194;28;19909;-78
2023/01/26 10:17:37;;;;;;;;;;;0.20;1.00;;;;;;5052966;28;19920;-75
2023/01/26 10:20:06;;;;;;;;;;;0.30;1.00;;;;;;5052647;28;20594;-75
2023/01/26 10:22:43;;;;;;;;;;;0.30;1.00;;;;;;5055269;28;19909;-75
2023/01/26 10:25:13;;;;;;;;;;;0.30;1.00;;;;;;5053707;28;19945;-76
2023/01/26 10:27:39;;;;;;;;;;;0.40;1.00;;;;;;5054400;28;20388;-75
2023/01/26 10:30:11;;;;;;;;;;;0.40;1.00;;;;;;5052377;28;19912;-79
2023/01/26 10:32:37;;;;;;;;;;;0.40;1.00;;;;;;5053972;28;20265;-75
2023/01/26 10:35:04;;;;;;;;;;;0.40;1.00;;;;;;5052460;28;19913;-76
2023/01/26 10:37:30;;;;;;;;;;;0.40;1.00;;;;;;5043452;28;19920;-75
2023/01/26 10:39:57;;;;;;;;;;;0.30;1.00;;;;;;5049909;28;19912;-76
2023/01/26 10:42:24;;;;;;;;;;;0.40;1.00;;;;;;5042946;28;19913;-75
2023/01/26 10:44:50;;;;;;;;;;;0.40;1.00;;;;;;5051651;28;19916;-75
2023/01/26 10:47:17;;;;;;;;;;;0.40;1.00;;;;;;5033745;28;19909;-75
2023/01/26 10:49:43;;;;;;;;;;;0.40;1.00;;;;;;5040696;28;20266;-75
2023/01/26 10:52:22;;;;;;;;;;;0.30;1.00;;;;;;5053449;28;19915;-75
2023/01/26 10:54:50;;;;;;;;;;;0.30;1.00;;;;;;5052695;28;19912;-75
2023/01/26 10:57:18;;;;;;;;;;;0.20;1.00;;;;;;5053552;28;19909;-75
2023/01/26 10:59:49;;;;;;;;;;;0.20;1.00;;;;;;5050976;28;20365;-74
2023/01/26 11:02:15;;;;;;;;;;;0.30;1.00;;;;;;5053164;28;19909;-74
2023/01/26 11:05:00;;;;;;;;;;;0.30;1.00;;;;;;5053497;28;19908;-75
2023/01/26 11:07:27;;;;;;;;;;;0.30;1.00;;;;;;5052893;28;19909;-76
2023/01/26 11:09:54;;;;;;;;;;;0.20;1.00;;;;;;5051985;28;19920;-75
2023/01/26 11:12:20;;;;;;;;;;;0.20;1.00;;;;;;5052788;28;20007;-75
2023/01/26 11:14:58;;;;;;;;;;;0.30;1.00;;;;;;5054582;28;20417;-75
2023/01/26 11:17:28;;;;;;;;;;;0.30;1.00;;;;;;5049145;28;19916;-75
2023/01/26 11:20:13;;;;;;;;;;;0.30;1.00;;;;;;5049401;28;19915;-75
2023/01/26 11:22:53;;;;;;;;;;;0.40;1.00;;;;;;5067970;28;19908;-75
2023/01/26 11:25:22;;;;;;;;;;;0.40;1.00;;;;;;5052156;28;19913;-75
2023/01/26 11:28:14;;;;;;;;;;;0.40;1.00;;;;;;5052745;28;19909;-75
2023/01/26 11:30:47;;;;;;;;;;;0.30;1.00;;;;;;5035323;28;19913;-74
2023/01/26 11:33:24;;;;;;;;;;;0.30;1.00;;;;;;5038550;28;19920;-75
2023/01/26 11:35:52;;;;;;;;;;;0.30;1.00;;;;;;5046761;28;19909;-75
2023/01/26 11:38:45;;;;;;;;;;;0.20;1.00;;;;;;5050604;28;19905;-75
2023/01/26 11:41:37;;;;;;;;;;;0.30;1.00;;;;;;5047941;28;19908;-74
2023/01/26 11:44:04;;;;;;;;;;;0.30;1.00;;;;;;5051229;28;20326;-74
2023/01/26 11:46:51;;;;;;;;;;;0.30;1.00;;;;;;5050209;28;19905;-74
2023/01/26 11:49:28;;;;;;;;;;;0.20;1.00;;;;;;5051233;28;20357;-75
2023/01/26 11:52:20;;;;;;;;;;;0.20;1.00;;;;;;5051298;28;19912;-74
2023/01/26 11:55:07;;;;;;;;;;;0.20;1.00;;;;;;5023518;28;19921;-74
2023/01/26 11:57:41;;;;;;;;;;;0.30;1.00;;;;;;5025825;28;20364;-73
2023/01/26 12:00:16;;;;;;;;;;;0.30;1.00;;;;;;5049376;28;19920;-78
2023/01/26 12:02:42;;;;;;;;;;;0.20;1.00;;;;;;5044420;28;19909;-75
2023/01/26 12:05:14;;;;;;;;;;;0.20;1.00;;;;;;5051967;28;19915;-76
2023/01/26 12:07:50;;;;;;;;;;;0.20;1.00;;;;;;5052885;28;19916;-75
2023/01/26 12:10:18;;;;;;;;;;;0.20;1.00;;;;;;5049258;28;19927;-75
2023/01/26 12:12:51;;;;;;;;;;;0.20;1.00;;;;;;5052391;28;20286;-75
2023/01/26 12:15:21;;;;;;;;;;;0.10;1.00;;;;;;5051799;28;19908;-75
2023/01/26 12:17:56;;;;;;;;;;;0.10;1.00;;;;;;5052494;28;19909;-75
2023/01/26 12:20:22;;;;;;;;;;;0.10;1.00;;;;;;5050625;28;19909;-75
2023/01/26 12:22:52;;;;;;;;;;;0.10;1.00;;;;;;5053350;28;19912;-75
2023/01/26 12:25:35;;;;;;;;;;;0.00;1.00;;;;;;5039070;28;19913;-76
2023/01/26 12:28:01;;;;;;;;;;;-0.10;1.00;;;;;;5048643;28;19908;-75
2023/01/26 12:30:27;;;;;;;;;;;-0.20;1.00;;;;;;5051908;28;20250;-75
2023/01/26 12:32:53;;;;;;;;;;;-0.20;1.00;;;;;;5053397;28;19920;-75
2023/01/26 12:35:26;;;;;;;;;;;-0.20;1.00;;;;;;5053872;28;20342;-75
2023/01/26 12:37:59;;;;;;;;;;;-0.20;1.00;;;;;;5053818;28;19909;-75
2023/01/26 12:40:34;;;;;;;;;;;-0.20;1.00;;;;;;5052218;28;19946;-75
2023/01/26 12:43:00;;;;;;;;;;;-0.20;1.00;;;;;;5054965;28;19909;-75
2023/01/26 12:45:28;;;;;;;;;;;-0.10;1.00;;;;;;5052813;28;19908;-75
2023/01/26 12:47:58;;;;;;;;;;;-0.10;1.00;;;;;;5057698;28;19916;-74
2023/01/26 12:50:43;;;;;;;;;;;-0.10;1.00;;;;;;5050844;28;19919;-76
2023/01/26 12:53:15;;;;;;;;;;;-0.10;1.00;;;;;;5053070;28;19924;-76
2023/01/26 12:55:44;;;;;;;;;;;-0.10;1.00;;;;;;5051317;28;19919;-76
2023/01/26 12:58:14;;;;;;;;;;;-0.10;1.00;;;;;;5037654;28;19905;-77
2023/01/26 13:00:49;;;;;;;;;;;0.00;1.00;;;;;;5052967;28;19916;-77
2023/01/26 13:03:24;;;;;;;;;;;0.00;1.00;;;;;;5055633;28;19909;-76
2023/01/26 13:05:55;;;;;;;;;;;-0.10;1.00;;;;;;5056105;28;19909;-76
2023/01/26 13:08:30;;;;;;;;;;;-0.10;1.00;;;;;;5054234;28;19916;-76
2023/01/26 13:10:57;;;;;;;;;;;0.00;1.00;;;;;;5063578;28;19939;-76
2023/01/26 13:13:26;;;;;;;;;;;-0.10;1.00;;;;;;5055855;28;20381;-75
2023/01/26 13:16:11;;;;;;;;;;;0.00;1.00;;;;;;5070430;28;19915;-76
2023/01/26 13:18:51;;;;;;;;;;;-0.10;1.00;;;;;;5055038;28;19909;-76
2023/01/26 13:21:35;;;;;;;;;;;-0.10;1.00;;;;;;5035702;28;19909;-76
2023/01/26 13:24:01;;;;;;;;;;;-0.10;1.00;;;;;;5055136;28;19912;-76
2023/01/26 13:26:30;;;;;;;;;;;0.00;1.00;;;;;;5054404;28;19916;-76
2023/01/26 13:29:15;;;;;;;;;;;0.10;1.00;;;;;;5054378;28;19912;-78
2023/01/26 13:31:41;;;;;;;;;;;0.00;1.00;;;;;;5045785;28;19920;-76
2023/01/26 13:34:07;;;;;;;;;;;0.00;1.00;;;;;;5035686;28;20362;-76
2023/01/26 13:36:35;;;;;;;;;;;0.10;1.00;;;;;;5035749;28;20277;-75
2023/01/26 13:39:04;;;;;;;;;;;0.00;1.00;;;;;;5041610;28;19909;-76
2023/01/26 13:41:30;;;;;;;;;;;0.00;1.00;;;;;;5033242;28;19909;-76
2023/01/26 13:44:09;;;;;;;;;;;0.10;1.00;;;;;;5035844;28;19931;-77
2023/01/26 13:46:56;;;;;;;;;;;0.10;1.00;;;;;;5049337;28;19933;-75
2023/01/26 13:49:26;;;;;;;;;;;0.00;1.00;;;;;;5052977;28;19912;-76
2023/01/26 13:51:52;;;;;;;;;;;0.00;1.00;;;;;;5053878;28;19919;-77
2023/01/26 13:54:18;;;;;;;;;;;-0.10;1.00;;;;;;5048865;28;20361;-81
2023/01/26 13:57:01;;;;;;;;;;;-0.10;1.00;;;;;;5053135;28;19916;-77
2023/01/26 13:59:27;;;;;;;;;;;0.10;1.00;;;;;;5051456;28;19908;-77
2023/01/26 14:01:55;;;;;;;;;;;0.10;1.00;;;;;;5050328;28;19920;-77
2023/01/26 14:04:30;;;;;;;;;;;0.10;1.00;;;;;;5052990;28;19904;-77
2023/01/26 14:07:05;;;;;;;;;;;0.00;1.00;;;;;;5055026;28;19904;-77
2023/01/26 14:09:33;;;;;;;;;;;0.10;1.00;;;;;;5070958;28;19919;-76
2023/01/26 14:12:00;;;;;;;;;;;0.10;1.00;;;;;;5052181;28;19916;-78
2023/01/26 14:14:28;;;;;;;;;;;-0.10;1.00;;;;;;5028238;28;19920;-77
2023/01/26 14:16:56;;;;;;;;;;;-0.10;1.00;;;;;;5052854;28;19983;-77
2023/01/26 14:19:22;;;;;;;;;;;-0.10;1.00;;;;;;5049262;28;20337;-77
2023/01/26 14:21:52;;;;;;;;;;;-0.10;1.00;;;;;;5041562;28;19904;-80
2023/01/26 14:24:24;;;;;;;;;;;-0.10;1.00;;;;;;5024996;28;19913;-81
2023/01/26 14:26:50;;;;;;;;;;;-0.10;1.00;;;;;;5044243;28;19905;-81
2023/01/26 14:29:23;;;;;;;;;;;-0.10;1.00;;;;;;5046005;28;20265;-80
2023/01/26 14:31:50;;;;;;;;;;;-0.10;1.00;;;;;;5050568;28;20250;-81
2023/01/26 14:34:21;;;;;;;;;;;-0.10;1.00;;;;;;5047648;28;19915;-79
2023/01/26 14:36:47;;;;;;;;;;;0.00;1.00;;;;;;5052546;28;19905;-80
2023/01/26 14:39:18;;;;;;;;;;;0.10;1.00;;;;;;5031724;28;19917;-81
2023/01/26 14:41:45;;;;;;;;;;;-0.10;1.00;;;;;;5049832;28;19912;-79
2023/01/26 14:44:11;;;;;;;;;;;-0.10;1.00;;;;;;5050267;28;20277;-79
2023/01/26 14:46:57;;;;;;;;;;;-0.20;1.00;;;;;;5048651;28;19912;-79
2023/01/26 14:49:29;;;;;;;;;;;-0.20;1.00;;;;;;5023455;28;19912;-79
2023/01/26 14:51:56;;;;;;;;;;;-0.20;1.00;;;;;;5054166;28;19916;-78
2023/01/26 14:54:35;;;;;;;;;;;-0.20;1.00;;;;;;5051514;28;19909;-78
2023/01/26 14:57:04;;;;;;;;;;;-0.20;1.00;;;;;;5049513;28;20367;-80
2023/01/26 14:59:36;;;;;;;;;;;-0.20;1.00;;;;;;5043426;28;20342;-77
2023/01/26 15:02:08;;;;;;;;;;;-0.30;1.00;;;;;;5036560;28;19911;-80
2023/01/26 15:04:37;;;;;;;;;;;-0.30;1.00;;;;;;5039432;28;19927;-80
2023/01/26 15:07:21;;;;;;;;;;;-0.30;1.00;;;;;;5044466;28;20108;-82
2023/01/26 15:09:56;;;;;;;;;;;-0.20;1.00;;;;;;5043507;28;19916;-82
2023/01/26 15:12:25;;;;;;;;;;;-0.20;1.00;;;;;;5048603;28;19915;-78
2023/01/26 15:14:58;;;;;;;;;;;-0.30;1.00;;;;;;5050395;28;19905;-79
2023/01/26 15:17:27;;;;;;;;;;;-0.30;1.00;;;;;;5048738;28;19905;-80
2023/01/26 15:19:53;;;;;;;;;;;-0.30;1.00;;;;;;5050080;28;19908;-80
2023/01/26 15:22:20;;;;;;;;;;;-0.20;1.00;;;;;;5050157;28;19919;-80
2023/01/26 15:24:57;;;;;;;;;;;-0.20;1.00;;;;;;5033061;28;19916;-80
2023/01/26 15:27:23;;;;;;;;;;;-0.20;1.00;;;;;;5052993;28;19920;-81
2023/01/26 15:29:56;;;;;;;;;;;-0.20;1.00;;;;;;5052094;28;20269;-80